Data for 11/30/2011

Time Sea-Level Adjusted Pressure Absolute Pressure Temperature Relative Humidity Dew Point   
(mb) (inHg) (mb) (inHg) (C) (F) (%) (C) (F)
00:05 1015 29.97 845 24.95 3.9 39 52 -5.1 22.8
00:10 1015 29.97 844 24.92 3.6 38.4 60 -3.4 25.8
00:15 1015 29.97 844 24.92 2.8 37 62 -3.8 25.1
00:20 1015 29.97 844 24.92 2.6 36.7 64 -3.6 25.6
00:25 1015 29.97 844 24.92 2.3 36.1 63 -3.9 24.9
00:30 1015 29.97 844 24.92 2.4 36.3 62 -4.2 24.5
00:35 1015 29.97 844 24.92 2.7 36.9 59 -4.4 24.1
00:40 1015 29.97 844 24.92 3 37.5 57 -4.8 23.4
00:45 1014 29.94 844 24.92 2.9 37.2 59 -4.2 24.4
00:50 1014 29.94 844 24.92 2.8 37 56 -5 22.9
00:55 1014 29.94 844 24.92 2.9 37.3 56 -5.1 22.9
01:00 1014 29.94 844 24.92 3.5 38.3 51 -5.6 21.9
01:05 1014 29.94 843 24.89 4.3 39.7 48 -5.6 21.8
01:10 1014 29.94 843 24.89 4.3 39.8 51 -4.9 23.1
01:15 1014 29.94 843 24.89 4 39.1 52 -5.1 22.8
01:20 1014 29.94 843 24.89 3.8 38.9 52 -5.1 22.9
01:25 1014 29.94 843 24.89 3.7 38.7 50 -5.7 21.7
01:30 1014 29.94 843 24.89 4 39.3 50 -5.5 22
01:35 1014 29.94 843 24.89 3.8 38.9 52 -5.1 22.8
01:40 1014 29.94 843 24.89 3.7 38.6 52 -5.3 22.4
01:45 1014 29.94 843 24.89 3.7 38.7 52 -5.3 22.5
01:50 1014 29.94 843 24.89 3.9 38.9 48 -6 21.1
01:55 1014 29.94 843 24.89 4.3 39.7 48 -5.8 21.6
02:00 1014 29.94 843 24.89 4.5 40.1 47 -5.9 21.4
02:05 1014 29.94 843 24.89 4.7 40.4 47 -5.6 21.8
02:10 1014 29.94 843 24.89 4.8 40.6 46 -5.9 21.3
02:15 1014 29.94 843 24.89 5.1 41.1 46 -5.7 21.7
02:20 1014 29.94 843 24.89 4.9 40.9 49 -4.9 23.2
02:25 1014 29.94 843 24.89 4.2 39.5 50 -5.2 22.6
02:30 1014 29.94 843 24.89 4 39.2 51 -5.2 22.6
02:35 1014 29.94 843 24.89 3.8 38.9 52 -5.2 22.7
02:40 1014 29.94 843 24.89 4 39.2 52 -5 23
02:45 1014 29.94 843 24.89 4.3 39.7 51 -5.1 22.9
02:50 1014 29.94 843 24.89 4.2 39.5 53 -4.6 23.8
02:55 1014 29.94 843 24.89 4 39.2 53 -4.9 23.3
03:00 1014 29.94 843 24.89 4 39.2 53 -4.7 23.5
03:05 1014 29.94 843 24.89 4.2 39.6 49 -5.5 22.1
03:10 1014 29.94 843 24.89 4.8 40.6 49 -5.1 22.9
03:15 1014 29.94 843 24.89 4.8 40.6 50 -4.9 23.3
03:20 1013 29.91 843 24.89 4.5 40.2 52 -4.5 23.9
03:25 1013 29.91 843 24.89 4.2 39.6 53 -4.4 24
03:30 1013 29.91 843 24.89 4.3 39.7 51 -4.8 23.3
03:35 1013 29.91 843 24.89 4.7 40.4 50 -4.9 23.2
03:40 1013 29.91 842 24.86 4.9 40.8 50 -4.7 23.5
03:45 1013 29.91 842 24.86 4.9 40.7 50 -4.8 23.4
03:50 1013 29.91 842 24.86 5 41 49 -4.8 23.3
03:55 1013 29.91 842 24.86 5 41.1 49 -4.7 23.5
04:00 1013 29.91 842 24.86 5.2 41.3 49 -4.7 23.6
04:05 1013 29.91 842 24.86 5.1 41.2 49 -4.7 23.6
04:10 1013 29.91 842 24.86 5.1 41.3 50 -4.4 24
04:15 1013 29.91 842 24.86 5 41.1 51 -4.3 24.2
04:20 1013 29.91 842 24.86 4.8 40.6 55 -3.5 25.6
04:25 1013 29.91 842 24.86 4.2 39.6 56 -3.7 25.3
04:30 1013 29.91 842 24.86 4 39.3 57 -3.6 25.5
04:35 1013 29.91 842 24.86 3.9 39 57 -3.9 24.9
04:40 1013 29.91 842 24.86 4 39.2 55 -4.2 24.5
04:45 1013 29.91 842 24.86 4.2 39.6 56 -3.8 25.2
04:50 1013 29.91 843 24.89 4.1 39.3 57 -3.6 25.6
04:55 1013 29.91 843 24.89 3.7 38.6 60 -3.5 25.7
05:00 1013 29.91 843 24.89 3.6 38.5 59 -3.7 25.4
05:05 1013 29.91 843 24.89 3.5 38.3 60 -3.4 25.8
05:10 1013 29.91 842 24.86 3.6 38.6 60 -3.5 25.7
05:15 1013 29.91 843 24.89 3.8 38.8 62 -2.9 26.7
05:20 1013 29.91 843 24.89 3.6 38.4 61 -3.2 26.2
05:25 1013 29.91 843 24.89 3.8 38.8 60 -3.2 26.2
05:30 1014 29.94 843 24.89 4 39.2 60 -3.1 26.5
05:35 1014 29.94 843 24.89 3.9 39.1 61 -3 26.6
05:40 1014 29.94 843 24.89 3.8 38.8 61 -3.1 26.4
05:45 1014 29.94 843 24.89 3.6 38.5 63 -2.9 26.9
05:50 1013 29.91 843 24.89 3.7 38.6 62 -3 26.7
05:55 1013 29.91 843 24.89 3.6 38.5 62 -3 26.7
06:00 1013 29.91 843 24.89 3.6 38.5 62 -3 26.5
06:05 1013 29.91 843 24.89 3.8 38.8 61 -3.1 26.5
06:10 1013 29.91 843 24.89 3.7 38.6 63 -2.8 27
06:15 1013 29.91 843 24.89 3.7 38.7 61 -3.2 26.3
06:20 1013 29.91 843 24.89 4.2 39.5 59 -3.1 26.5
06:25 1013 29.91 843 24.89 4.3 39.7 60 -2.9 26.8
06:30 1014 29.94 843 24.89 4.2 39.6 62 -2.4 27.7
06:35 1014 29.94 843 24.89 3.8 38.9 74 -0.3 31.4
06:40 1014 29.94 843 24.89 3.1 37.6 78 -0.3 31.4
06:45 1014 29.94 843 24.89 2.9 37.1 79 -0.5 31.1
06:50 1014 29.94 843 24.89 2.9 37.2 80 -0.3 31.4
06:55 1014 29.94 844 24.92 2.1 35.8 86 0 32
07:00 1015 29.97 844 24.92 1 33.9 89 -0.6 30.9
07:05 1015 29.97 844 24.92 0.7 33.2 91 -0.6 30.9
07:10 1015 29.97 844 24.92 0.4 32.8 93 -0.6 30.9
07:15 1015 29.97 844 24.92 0.4 32.7 93 -0.7 30.8
07:20 1015 29.97 844 24.92 0.4 32.7 93 -0.7 30.8
07:25 1015 29.97 844 24.92 0.5 32.8 92 -0.7 30.8
07:30 1015 29.97 844 24.92 0.5 32.9 92 -0.7 30.8
07:35 1015 29.97 844 24.92 0.4 32.8 93 -0.6 30.9
07:40 1015 29.97 844 24.92 0.4 32.7 92 -0.7 30.7
07:45 1015 29.97 844 24.92 0.3 32.6 92 -0.8 30.6
07:50 1015 29.97 844 24.92 0.3 32.6 91 -1 30.2
07:55 1015 29.97 845 24.95 0.4 32.7 90 -1.1 30
08:00 1015 29.97 845 24.95 0.7 33.3 86 -1.4 29.5
08:05 1015 29.97 845 24.95 1 33.8 83 -1.6 29.1
08:10 1015 29.97 845 24.95 1.2 34.1 81 -1.8 28.7
08:15 1016 30 845 24.95 1.3 34.3 79 -2 28.4
08:20 1016 30 845 24.95 1.4 34.6 77 -2.2 28
08:25 1015 29.97 845 24.95 1.5 34.7 75 -2.5 27.4
08:30 1016 30 845 24.95 1.5 34.7 74 -2.6 27.4
08:35 1016 30 845 24.95 1.5 34.7 75 -2.5 27.5
08:40 1016 30 845 24.95 1.4 34.6 76 -2.3 27.9
08:45 1016 30 845 24.95 1.4 34.5 77 -2.3 27.9
08:50 1016 30 845 24.95 1.3 34.3 77 -2.3 27.9
08:55 1016 30 845 24.95 1.2 34.1 76 -2.6 27.3
09:00 1016 30 845 24.95 1.2 34.2 74 -2.9 26.8
09:05 1016 30 845 24.95 1.3 34.4 75 -2.6 27.3
09:10 1016 30 845 24.95 1.3 34.3 75 -2.7 27.2
09:15 1016 30 846 24.98 1.2 34.1 74 -3 26.6
09:20 1016 30 846 24.98 1.1 33.9 76 -2.7 27.1
09:25 1016 30 846 24.98 1.1 33.9 73 -3.2 26.3
09:30 1017 30.03 846 24.98 1.2 34.1 73 -3.1 26.4
09:35 1017 30.03 846 24.98 1.3 34.3 72 -3.2 26.2
09:40 1017 30.03 846 24.98 1.6 34.8 71 -3.1 26.4
09:45 1017 30.03 846 24.98 1.4 34.6 69 -3.6 25.4
09:50 1017 30.03 846 24.98 1.8 35.2 67 -3.7 25.4
09:55 1017 30.03 846 24.98 1.9 35.4 66 -3.8 25.1
10:00 1017 30.03 846 24.98 2.2 36 64 -3.9 24.9
10:05 1017 30.03 846 24.98 2.6 36.7 63 -3.7 25.3
10:10 1017 30.03 846 24.98 2.8 37.1 62 -3.7 25.4
10:15 1017 30.03 846 24.98 3 37.4 62 -3.5 25.7
10:20 1017 30.03 847 25.01 2.8 37 61 -3.9 25
10:25 1017 30.03 847 25.01 2.5 36.4 62 -4.2 24.5
10:30 1017 30.03 847 25.01 2.5 36.5 62 -4.1 24.6
10:35 1017 30.03 847 25.01 2.6 36.6 61 -4.3 24.3
10:40 1017 30.03 847 25.01 2.9 37.1 60 -4.2 24.5
10:45 1017 30.03 847 25.01 2.7 36.8 60 -4.2 24.4
10:50 1017 30.03 847 25.01 2.5 36.5 62 -4 24.7
10:55 1018 30.06 847 25.01 2.6 36.7 54 -5.8 21.6
11:00 1017 30.03 847 25.01 2.8 37 49 -6.8 19.7
11:05 1018 30.06 847 25.01 2.7 36.8 51 -6.5 20.3
11:10 1018 30.06 847 25.01 2.8 37 49 -6.8 19.7
11:15 1018 30.06 847 25.01 2.6 36.7 49 -6.9 19.5
11:20 1018 30.06 847 25.01 2.6 36.7 48 -7.3 18.9
11:25 1018 30.06 847 25.01 2.5 36.6 48 -7.3 18.9
11:30 1018 30.06 847 25.01 2.4 36.4 49 -7.1 19.2
11:35 1018 30.06 847 25.01 2.4 36.3 47 -7.9 17.8
11:40 1018 30.06 847 25.01 2.3 36.1 49 -7.4 18.7
11:45 1018 30.06 847 25.01 2.4 36.2 48 -7.5 18.6
11:50 1018 30.06 847 25.01 2.5 36.4 49 -7.1 19.3
11:55 1018 30.06 847 25.01 2.5 36.5 48 -7.4 18.7
12:00 1018 30.06 847 25.01 2.5 36.5 47 -7.6 18.3
12:05 1018 30.06 847 25.01 2.3 36.1 49 -7.4 18.7
12:10 1018 30.06 847 25.01 2.3 36.1 51 -6.9 19.6
12:15 1018 30.06 847 25.01 2.2 36 50 -7.2 19
12:20 1018 30.06 847 25.01 2.2 36 50 -7.2 19.1
12:25 1018 30.06 847 25.01 2.2 36 50 -7.3 18.9
12:30 1018 30.06 848 25.04 2.1 35.7 50 -7.3 18.8
12:35 1018 30.06 848 25.04 2 35.6 52 -6.9 19.5
12:40 1018 30.06 848 25.04 1.9 35.5 50 -7.3 18.8
12:45 1019 30.09 848 25.04 1.9 35.4 50 -7.4 18.8
12:50 1019 30.09 848 25.04 1.9 35.4 52 -6.9 19.7
12:55 1019 30.09 848 25.04 1.9 35.4 51 -7.1 19.3
13:00 1019 30.09 848 25.04 1.9 35.5 50 -7.5 18.6
13:05 1019 30.09 848 25.04 2 35.5 51 -7.1 19.3
13:10 1019 30.09 848 25.04 2.1 35.7 51 -7 19.4
13:15 1019 30.09 848 25.04 2.1 35.9 48 -7.7 18.1
13:20 1019 30.09 848 25.04 2.1 35.8 47 -8.1 17.4
13:25 1019 30.09 848 25.04 2.1 35.7 47 -8.2 17.3
13:30 1019 30.09 848 25.04 2.1 35.7 48 -8 17.7
13:35 1019 30.09 848 25.04 2.1 35.8 49 -7.7 18.2
13:40 1019 30.09 848 25.04 2.1 35.8 49 -7.6 18.3
13:45 1019 30.09 848 25.04 2.1 35.7 49 -7.6 18.3
13:50 1019 30.09 849 25.07 2.1 35.7 50 -7.3 18.8
13:55 1019 30.09 849 25.07 2.1 35.8 49 -7.6 18.4
14:00 1020 30.12 849 25.07 2.2 35.9 47 -7.9 17.8
14:05 1020 30.12 849 25.07 2.3 36.1 47 -7.9 17.7
14:10 1020 30.12 849 25.07 2.2 36 48 -7.7 18.2
14:15 1020 30.12 849 25.07 2.2 36 48 -7.7 18.2
14:20 1020 30.12 849 25.07 2.1 35.8 48 -7.7 18.1
14:25 1020 30.12 849 25.07 2.1 35.8 48 -7.7 18.1
14:30 1020 30.12 849 25.07 1.8 35.2 59 -5.4 22.4
14:35 1020 30.12 850 25.1 1 33.8 65 -4.8 23.3
14:40 1021 30.15 850 25.1 0.5 32.8 65 -5.3 22.5
14:45 1021 30.15 850 25.1 0.2 32.4 65 -5.5 22.1
14:50 1021 30.15 850 25.1 0.2 32.3 63 -6.1 21.1
14:55 1021 30.15 850 25.1 0.1 32.2 63 -6.1 20.9
15:00 1021 30.15 850 25.1 0.1 32.2 62 -6.3 20.6
15:05 1021 30.15 850 25.1 -0.3 31.4 65 -6.1 21.1
15:10 1021 30.15 851 25.13 -0.8 30.6 67 -6.2 20.9
15:15 1022 30.18 851 25.13 -0.9 30.3 67 -6.3 20.7
15:20 1022 30.18 851 25.13 -1 30.2 67 -6.3 20.7
15:25 1022 30.18 851 25.13 -1.2 29.9 68 -6.4 20.5
15:30 1022 30.18 851 25.13 -1.3 29.7 66 -6.8 19.8
15:35 1022 30.18 851 25.13 -1.3 29.7 67 -6.7 19.9
15:40 1022 30.18 851 25.13 -1.3 29.6 67 -6.6 20.1
15:45 1022 30.18 852 25.16 -1.4 29.4 68 -6.5 20.3
15:50 1023 30.21 852 25.16 -1.4 29.5 68 -6.5 20.3
15:55 1023 30.21 852 25.16 -1.7 28.9 70 -6.4 20.4
16:00 1023 30.21 852 25.16 -1.9 28.7 71 -6.5 20.4
16:05 1023 30.21 852 25.16 -1.9 28.6 71 -6.4 20.4
16:10 1023 30.21 853 25.19 -1.9 28.6 72 -6.3 20.7
16:15 1024 30.24 853 25.19 -1.9 28.6 71 -6.5 20.3
16:20 1024 30.24 853 25.19 -2 28.4 71 -6.5 20.3
16:25 1024 30.24 853 25.19 -2 28.4 71 -6.5 20.3
16:30 1024 30.24 853 25.19 -2 28.3 72 -6.5 20.3
16:35 1024 30.24 853 25.19 -2.1 28.2 72 -6.6 20.2
16:40 1024 30.24 854 25.22 -2.1 28.2 72 -6.5 20.2
16:45 1024 30.24 854 25.22 -2.2 28 74 -6.3 20.7
16:50 1025 30.27 854 25.22 -2.3 27.8 76 -5.9 21.3
16:55 1025 30.27 854 25.22 -2.5 27.6 78 -5.7 21.7
17:00 1025 30.27 854 25.22 -2.6 27.4 81 -5.4 22.2
17:05 1025 30.27 854 25.22 -2.6 27.3 81 -5.5 22.2
17:10 1025 30.27 854 25.22 -2.6 27.3 82 -5.4 22.3
17:15 1025 30.27 855 25.25 -2.6 27.3 81 -5.5 22.1
17:20 1026 30.3 855 25.25 -2.6 27.3 81 -5.3 22.4
17:25 1026 30.3 855 25.25 -2.6 27.4 80 -5.6 22
17:30 1026 30.3 855 25.25 -2.7 27.2 81 -5.5 22.1
17:35 1026 30.3 855 25.25 -2.8 27 82 -5.4 22.4
17:40 1026 30.3 855 25.25 -2.8 27 82 -5.4 22.3
17:45 1026 30.3 855 25.25 -2.9 26.8 83 -5.4 22.3
17:50 1026 30.3 855 25.25 -3 26.7 83 -5.5 22.1
17:55 1026 30.3 856 25.28 -3 26.7 84 -5.4 22.3
18:00 1027 30.33 856 25.28 -3 26.5 83 -5.5 22.1
18:05 1027 30.33 856 25.28 -3.1 26.5 84 -5.4 22.2
18:10 1027 30.33 856 25.28 -3.1 26.4 84 -5.4 22.3
18:15 1027 30.33 856 25.28 -3.2 26.2 85 -5.4 22.2
18:20 1027 30.33 856 25.28 -3.3 26 85 -5.5 22.1
18:25 1027 30.33 856 25.28 -3.4 26 85 -5.5 22.1
18:30 1027 30.33 856 25.28 -3.4 25.8 86 -5.5 22.1
18:35 1027 30.33 857 25.31 -3.4 25.8 85 -5.5 22
18:40 1028 30.36 857 25.31 -3.4 25.8 85 -5.6 21.8
18:45 1028 30.36 857 25.31 -3.4 25.8 84 -5.7 21.7
18:50 1028 30.36 857 25.31 -3.5 25.7 85 -5.7 21.7
18:55 1028 30.36 857 25.31 -3.5 25.7 84 -5.8 21.6
19:00 1028 30.36 857 25.31 -3.5 25.6 83 -6 21.2
19:05 1028 30.36 857 25.31 -3.6 25.6 83 -6 21.2
19:10 1028 30.36 858 25.34 -3.6 25.5 83 -6.1 21
19:15 1028 30.36 858 25.34 -3.6 25.4 82 -6.3 20.7
19:20 1029 30.39 858 25.34 -3.7 25.4 82 -6.3 20.7
19:25 1029 30.39 858 25.34 -3.7 25.4 82 -6.3 20.7
19:30 1029 30.39 858 25.34 -3.7 25.3 83 -6.3 20.7
19:35 1029 30.39 858 25.34 -3.8 25.2 82 -6.4 20.6
19:40 1029 30.39 858 25.34 -3.8 25.1 82 -6.5 20.3
19:45 1029 30.39 858 25.34 -3.9 25 82 -6.6 20.2
19:50 1029 30.39 859 25.37 -3.9 25 81 -6.6 20.1
19:55 1029 30.39 859 25.37 -3.9 24.9 82 -6.6 20.1
20:00 1029 30.39 859 25.37 -4 24.9 82 -6.6 20.1
20:05 1029 30.39 859 25.37 -4 24.8 82 -6.6 20.1
20:10 1030 30.42 859 25.37 -4 24.7 82 -6.6 20.1
20:15 1030 30.42 859 25.37 -4 24.7 82 -6.6 20.1
20:20 1030 30.42 859 25.37 -4.1 24.7 83 -6.6 20.2
20:25 1030 30.42 859 25.37 -4.1 24.6 84 -6.4 20.4
20:30 1030 30.42 859 25.37 -4.2 24.5 84 -6.6 20.2
20:35 1030 30.42 859 25.37 -4.2 24.4 83 -6.6 20.1
20:40 1030 30.42 859 25.37 -4.2 24.5 83 -6.7 19.9
20:45 1030 30.42 859 25.37 -4.2 24.4 82 -6.8 19.7
20:50 1030 30.42 859 25.37 -4.2 24.4 81 -7 19.4
20:55 1030 30.42 859 25.37 -4.2 24.4 81 -7 19.4
21:00 1030 30.42 859 25.37 -4.2 24.4 81 -7 19.3
21:05 1030 30.42 859 25.37 -4.2 24.4 80 -7.2 19.1
21:10 1030 30.42 860 25.4 -4.2 24.5 79 -7.3 18.8
21:15 1030 30.42 860 25.4 -4.1 24.6 78 -7.4 18.7
21:20 1030 30.42 860 25.4 -4.2 24.4 79 -7.3 18.8
21:25 1031 30.45 860 25.4 -4.3 24.2 80 -7.3 18.9
21:30 1031 30.45 860 25.4 -4.4 24.1 79 -7.4 18.6
21:35 1031 30.45 860 25.4 -4.5 24 79 -7.5 18.5
21:40 1031 30.45 860 25.4 -4.6 23.8 80 -7.6 18.4
21:45 1031 30.45 860 25.4 -4.6 23.7 80 -7.6 18.3
21:50 1031 30.45 860 25.4 -4.6 23.7 80 -7.6 18.3
21:55 1031 30.45 860 25.4 -4.6 23.8 78 -7.8 18
22:00 1031 30.45 860 25.4 -4.5 23.8 79 -7.7 18.1
22:05 1031 30.45 860 25.4 -4.5 23.9 78 -7.8 18
22:10 1031 30.45 861 25.43 -4.5 23.8 79 -7.7 18.1
22:15 1032 30.47 861 25.43 -4.6 23.8 79 -7.7 18.1
22:20 1032 30.47 861 25.43 -4.5 23.8 79 -7.7 18.1
22:25 1032 30.47 861 25.43 -4.5 23.8 79 -7.7 18.2
22:30 1032 30.47 861 25.43 -4.5 23.8 79 -7.7 18.2
22:35 1032 30.47 861 25.43 -4.6 23.8 79 -7.6 18.3
22:40 1032 30.47 861 25.43 -4.6 23.8 79 -7.7 18.1
22:45 1032 30.47 861 25.43 -4.6 23.8 79 -7.6 18.3
22:50 1032 30.47 861 25.43 -4.6 23.8 80 -7.6 18.3
22:55 1032 30.47 861 25.43 -4.6 23.7 80 -7.6 18.4
23:00 1032 30.47 861 25.43 -4.7 23.6 80 -7.6 18.4
23:05 1032 30.47 861 25.43 -4.7 23.6 80 -7.7 18.2
23:10 1032 30.47 861 25.43 -4.7 23.6 80 -7.7 18.1
23:15 1032 30.47 861 25.43 -4.7 23.6 80 -7.7 18.2
23:20 1032 30.47 861 25.43 -4.7 23.5 79 -7.8 17.9
23:25 1032 30.47 861 25.43 -4.7 23.5 79 -7.8 18
23:30 1032 30.47 861 25.43 -4.7 23.5 79 -7.8 17.9
23:35 1032 30.47 861 25.43 -4.8 23.4 79 -7.9 17.8
23:40 1032 30.47 861 25.43 -4.8 23.4 79 -7.9 17.7
23:45 1032 30.47 861 25.43 -4.7 23.5 78 -8 17.6
23:50 1032 30.47 861 25.43 -4.7 23.5 78 -8.1 17.5
23:55 1032 30.47 861 25.43 -4.9 23.3 78 -8.1 17.3
24:00 1032 30.47 861 25.43 -4.9 23.2 78 -8.2 17.3